sensor_id;sensor_type;location;lat;lon;timestamp;P1;durP1;ratioP1;P2;durP2;ratioP2
29824;SDS011;16713;52.916;12.834;2023-12-20T00:01:36;7.07;;;5.72;;
29824;SDS011;16713;52.916;12.834;2023-12-20T00:04:02;7.43;;;5.57;;
29824;SDS011;16713;52.916;12.834;2023-12-20T00:06:30;6.20;;;4.85;;
29824;SDS011;16713;52.916;12.834;2023-12-20T00:08:57;8.02;;;5.95;;
29824;SDS011;16713;52.916;12.834;2023-12-20T00:11:26;7.30;;;5.18;;
29824;SDS011;16713;52.916;12.834;2023-12-20T00:13:52;5.78;;;4.47;;
29824;SDS011;16713;52.916;12.834;2023-12-20T00:16:19;3.80;;;3.40;;
29824;SDS011;16713;52.916;12.834;2023-12-20T00:18:45;3.03;;;2.20;;
29824;SDS011;16713;52.916;12.834;2023-12-20T00:21:12;2.40;;;1.45;;
29824;SDS011;16713;52.916;12.834;2023-12-20T00:23:39;1.20;;;1.10;;
29824;SDS011;16713;52.916;12.834;2023-12-20T00:26:05;3.10;;;1.00;;
29824;SDS011;16713;52.916;12.834;2023-12-20T00:28:32;1.20;;;0.88;;
29824;SDS011;16713;52.916;12.834;2023-12-20T00:30:58;1.95;;;0.70;;
29824;SDS011;16713;52.916;12.834;2023-12-20T00:33:25;2.85;;;0.80;;
29824;SDS011;16713;52.916;12.834;2023-12-20T00:35:52;0.70;;;0.38;;
29824;SDS011;16713;52.916;12.834;2023-12-20T00:38:18;3.10;;;0.80;;
29824;SDS011;16713;52.916;12.834;2023-12-20T00:40:45;5.70;;;0.90;;
29824;SDS011;16713;52.916;12.834;2023-12-20T00:43:11;2.42;;;0.55;;
29824;SDS011;16713;52.916;12.834;2023-12-20T00:45:38;1.83;;;0.68;;
29824;SDS011;16713;52.916;12.834;2023-12-20T00:48:05;1.70;;;0.50;;
29824;SDS011;16713;52.916;12.834;2023-12-20T00:50:32;1.52;;;0.65;;
29824;SDS011;16713;52.916;12.834;2023-12-20T00:52:58;0.65;;;0.55;;
29824;SDS011;16713;52.916;12.834;2023-12-20T00:55:25;2.20;;;0.68;;
29824;SDS011;16713;52.916;12.834;2023-12-20T00:57:51;1.08;;;0.47;;
29824;SDS011;16713;52.916;12.834;2023-12-20T01:00:19;1.70;;;0.50;;
29824;SDS011;16713;52.916;12.834;2023-12-20T01:02:46;2.47;;;0.50;;
29824;SDS011;16713;52.916;12.834;2023-12-20T01:05:15;1.20;;;0.57;;
29824;SDS011;16713;52.916;12.834;2023-12-20T01:07:41;1.23;;;0.50;;
29824;SDS011;16713;52.916;12.834;2023-12-20T01:10:08;2.15;;;0.70;;
29824;SDS011;16713;52.916;12.834;2023-12-20T01:12:35;2.35;;;0.55;;
29824;SDS011;16713;52.916;12.834;2023-12-20T01:15:02;0.55;;;0.55;;
29824;SDS011;16713;52.916;12.834;2023-12-20T01:17:29;4.05;;;0.75;;
29824;SDS011;16713;52.916;12.834;2023-12-20T01:19:56;0.93;;;0.80;;
29824;SDS011;16713;52.916;12.834;2023-12-20T01:22:22;2.85;;;0.95;;
29824;SDS011;16713;52.916;12.834;2023-12-20T01:24:49;3.83;;;0.82;;
29824;SDS011;16713;52.916;12.834;2023-12-20T01:27:15;1.40;;;0.98;;
29824;SDS011;16713;52.916;12.834;2023-12-20T01:29:41;3.35;;;1.00;;
29824;SDS011;16713;52.916;12.834;2023-12-20T01:32:08;1.67;;;1.10;;
29824;SDS011;16713;52.916;12.834;2023-12-20T01:34:34;3.60;;;1.50;;
29824;SDS011;16713;52.916;12.834;2023-12-20T01:37:02;2.75;;;1.65;;
29824;SDS011;16713;52.916;12.834;2023-12-20T01:39:29;4.28;;;2.13;;
29824;SDS011;16713;52.916;12.834;2023-12-20T01:41:55;2.50;;;1.90;;
29824;SDS011;16713;52.916;12.834;2023-12-20T01:44:22;3.65;;;1.73;;
29824;SDS011;16713;52.916;12.834;2023-12-20T01:46:48;4.57;;;1.90;;
29824;SDS011;16713;52.916;12.834;2023-12-20T01:49:15;3.70;;;2.28;;
29824;SDS011;16713;52.916;12.834;2023-12-20T01:51:42;1.38;;;1.23;;
29824;SDS011;16713;52.916;12.834;2023-12-20T01:54:09;2.67;;;1.50;;
29824;SDS011;16713;52.916;12.834;2023-12-20T01:56:36;3.67;;;1.20;;
29824;SDS011;16713;52.916;12.834;2023-12-20T01:59:03;2.10;;;1.20;;
29824;SDS011;16713;52.916;12.834;2023-12-20T02:01:30;4.13;;;1.33;;
29824;SDS011;16713;52.916;12.834;2023-12-20T02:03:57;4.47;;;2.22;;
29824;SDS011;16713;52.916;12.834;2023-12-20T02:06:25;3.45;;;1.17;;
29824;SDS011;16713;52.916;12.834;2023-12-20T02:08:57;1.70;;;1.17;;
29824;SDS011;16713;52.916;12.834;2023-12-20T02:11:25;7.95;;;1.15;;
29824;SDS011;16713;52.916;12.834;2023-12-20T02:13:52;4.80;;;1.30;;
29824;SDS011;16713;52.916;12.834;2023-12-20T02:16:19;4.25;;;1.20;;
29824;SDS011;16713;52.916;12.834;2023-12-20T02:18:46;4.78;;;1.17;;
29824;SDS011;16713;52.916;12.834;2023-12-20T02:21:12;8.52;;;1.40;;
29824;SDS011;16713;52.916;12.834;2023-12-20T02:23:39;3.28;;;1.08;;
29824;SDS011;16713;52.916;12.834;2023-12-20T02:26:05;3.58;;;1.13;;
29824;SDS011;16713;52.916;12.834;2023-12-20T02:28:32;5.43;;;1.77;;
29824;SDS011;16713;52.916;12.834;2023-12-20T02:30:59;4.30;;;1.50;;
29824;SDS011;16713;52.916;12.834;2023-12-20T02:33:26;4.72;;;1.25;;
29824;SDS011;16713;52.916;12.834;2023-12-20T02:35:53;4.68;;;1.58;;
29824;SDS011;16713;52.916;12.834;2023-12-20T02:38:19;6.35;;;1.77;;
29824;SDS011;16713;52.916;12.834;2023-12-20T02:40:45;7.93;;;2.47;;
29824;SDS011;16713;52.916;12.834;2023-12-20T02:43:15;4.15;;;1.70;;
29824;SDS011;16713;52.916;12.834;2023-12-20T02:45:42;6.25;;;1.58;;
29824;SDS011;16713;52.916;12.834;2023-12-20T02:48:08;16.13;;;2.40;;
29824;SDS011;16713;52.916;12.834;2023-12-20T02:50:35;5.47;;;1.50;;
29824;SDS011;16713;52.916;12.834;2023-12-20T02:53:01;8.57;;;2.80;;
29824;SDS011;16713;52.916;12.834;2023-12-20T02:55:28;11.30;;;1.90;;
29824;SDS011;16713;52.916;12.834;2023-12-20T02:57:54;5.70;;;1.95;;
29824;SDS011;16713;52.916;12.834;2023-12-20T03:00:21;8.23;;;2.20;;
29824;SDS011;16713;52.916;12.834;2023-12-20T03:02:47;13.02;;;1.88;;
29824;SDS011;16713;52.916;12.834;2023-12-20T03:05:13;10.18;;;1.88;;
29824;SDS011;16713;52.916;12.834;2023-12-20T03:07:40;11.02;;;1.83;;
29824;SDS011;16713;52.916;12.834;2023-12-20T03:10:08;7.55;;;1.75;;
29824;SDS011;16713;52.916;12.834;2023-12-20T03:12:45;7.45;;;1.90;;
29824;SDS011;16713;52.916;12.834;2023-12-20T03:15:12;5.90;;;1.63;;
29824;SDS011;16713;52.916;12.834;2023-12-20T03:17:38;5.53;;;2.13;;
29824;SDS011;16713;52.916;12.834;2023-12-20T03:20:05;13.05;;;2.53;;
29824;SDS011;16713;52.916;12.834;2023-12-20T03:22:33;5.53;;;2.20;;
29824;SDS011;16713;52.916;12.834;2023-12-20T03:24:59;8.27;;;2.10;;
29824;SDS011;16713;52.916;12.834;2023-12-20T03:27:25;15.00;;;1.98;;
29824;SDS011;16713;52.916;12.834;2023-12-20T03:29:52;9.10;;;2.67;;
29824;SDS011;16713;52.916;12.834;2023-12-20T03:32:18;10.45;;;2.92;;
29824;SDS011;16713;52.916;12.834;2023-12-20T03:34:45;5.72;;;2.50;;
29824;SDS011;16713;52.916;12.834;2023-12-20T03:37:12;8.15;;;1.60;;
29824;SDS011;16713;52.916;12.834;2023-12-20T03:39:38;5.32;;;2.08;;
29824;SDS011;16713;52.916;12.834;2023-12-20T03:42:05;10.93;;;2.20;;
29824;SDS011;16713;52.916;12.834;2023-12-20T03:44:31;15.88;;;2.28;;
29824;SDS011;16713;52.916;12.834;2023-12-20T03:46:58;7.15;;;1.75;;
29824;SDS011;16713;52.916;12.834;2023-12-20T03:49:24;8.13;;;1.65;;
29824;SDS011;16713;52.916;12.834;2023-12-20T03:51:51;10.02;;;1.83;;
29824;SDS011;16713;52.916;12.834;2023-12-20T03:54:17;7.80;;;2.42;;
29824;SDS011;16713;52.916;12.834;2023-12-20T03:56:44;8.50;;;1.90;;
29824;SDS011;16713;52.916;12.834;2023-12-20T03:59:10;11.73;;;2.38;;
29824;SDS011;16713;52.916;12.834;2023-12-20T04:01:36;7.72;;;2.08;;
29824;SDS011;16713;52.916;12.834;2023-12-20T04:04:03;7.15;;;1.80;;
29824;SDS011;16713;52.916;12.834;2023-12-20T04:06:30;13.48;;;2.22;;
29824;SDS011;16713;52.916;12.834;2023-12-20T04:08:56;9.32;;;1.73;;
29824;SDS011;16713;52.916;12.834;2023-12-20T04:11:23;6.88;;;1.90;;
29824;SDS011;16713;52.916;12.834;2023-12-20T04:13:49;10.40;;;3.08;;
29824;SDS011;16713;52.916;12.834;2023-12-20T04:16:16;4.28;;;1.42;;
29824;SDS011;16713;52.916;12.834;2023-12-20T04:18:42;8.13;;;3.00;;
29824;SDS011;16713;52.916;12.834;2023-12-20T04:21:09;7.13;;;1.60;;
29824;SDS011;16713;52.916;12.834;2023-12-20T04:23:35;9.13;;;1.95;;
29824;SDS011;16713;52.916;12.834;2023-12-20T04:26:02;10.65;;;2.22;;
29824;SDS011;16713;52.916;12.834;2023-12-20T04:28:28;11.25;;;1.73;;
29824;SDS011;16713;52.916;12.834;2023-12-20T04:30:58;11.30;;;1.60;;
29824;SDS011;16713;52.916;12.834;2023-12-20T04:33:24;4.32;;;1.48;;
29824;SDS011;16713;52.916;12.834;2023-12-20T04:35:51;7.82;;;1.70;;
29824;SDS011;16713;52.916;12.834;2023-12-20T04:38:17;9.15;;;1.55;;
29824;SDS011;16713;52.916;12.834;2023-12-20T04:40:44;7.55;;;1.20;;
29824;SDS011;16713;52.916;12.834;2023-12-20T04:43:10;14.63;;;3.55;;
29824;SDS011;16713;52.916;12.834;2023-12-20T04:45:37;11.18;;;2.03;;
29824;SDS011;16713;52.916;12.834;2023-12-20T04:48:03;11.07;;;1.90;;
29824;SDS011;16713;52.916;12.834;2023-12-20T04:50:30;8.68;;;1.83;;
29824;SDS011;16713;52.916;12.834;2023-12-20T04:52:57;3.17;;;1.73;;
29824;SDS011;16713;52.916;12.834;2023-12-20T04:55:23;7.45;;;1.33;;
29824;SDS011;16713;52.916;12.834;2023-12-20T04:57:50;7.22;;;1.52;;
29824;SDS011;16713;52.916;12.834;2023-12-20T05:00:17;13.90;;;1.85;;
29824;SDS011;16713;52.916;12.834;2023-12-20T05:02:43;10.48;;;1.55;;
29824;SDS011;16713;52.916;12.834;2023-12-20T05:05:10;7.40;;;1.65;;
29824;SDS011;16713;52.916;12.834;2023-12-20T05:07:37;9.93;;;1.55;;
29824;SDS011;16713;52.916;12.834;2023-12-20T05:10:04;10.77;;;2.92;;
29824;SDS011;16713;52.916;12.834;2023-12-20T05:12:31;12.13;;;2.28;;
29824;SDS011;16713;52.916;12.834;2023-12-20T05:14:57;11.77;;;2.05;;
29824;SDS011;16713;52.916;12.834;2023-12-20T05:17:24;6.07;;;1.73;;
29824;SDS011;16713;52.916;12.834;2023-12-20T05:19:51;13.25;;;2.97;;
29824;SDS011;16713;52.916;12.834;2023-12-20T05:22:18;12.05;;;1.70;;
29824;SDS011;16713;52.916;12.834;2023-12-20T05:24:45;7.38;;;1.90;;
29824;SDS011;16713;52.916;12.834;2023-12-20T05:27:12;10.07;;;2.08;;
29824;SDS011;16713;52.916;12.834;2023-12-20T05:29:38;7.10;;;2.03;;
29824;SDS011;16713;52.916;12.834;2023-12-20T05:32:05;13.48;;;2.22;;
29824;SDS011;16713;52.916;12.834;2023-12-20T05:34:32;8.70;;;2.15;;
29824;SDS011;16713;52.916;12.834;2023-12-20T05:36:58;10.23;;;1.63;;
29824;SDS011;16713;52.916;12.834;2023-12-20T05:39:25;7.53;;;2.33;;
29824;SDS011;16713;52.916;12.834;2023-12-20T05:41:52;11.10;;;2.20;;
29824;SDS011;16713;52.916;12.834;2023-12-20T05:44:18;6.25;;;1.65;;
29824;SDS011;16713;52.916;12.834;2023-12-20T05:46:45;11.98;;;2.00;;
29824;SDS011;16713;52.916;12.834;2023-12-20T05:49:11;14.57;;;2.08;;
29824;SDS011;16713;52.916;12.834;2023-12-20T05:51:38;11.02;;;1.60;;
29824;SDS011;16713;52.916;12.834;2023-12-20T05:54:04;7.22;;;2.55;;
29824;SDS011;16713;52.916;12.834;2023-12-20T05:56:31;8.18;;;2.17;;
29824;SDS011;16713;52.916;12.834;2023-12-20T05:58:58;9.82;;;2.45;;
29824;SDS011;16713;52.916;12.834;2023-12-20T06:01:25;10.52;;;2.17;;
29824;SDS011;16713;52.916;12.834;2023-12-20T06:03:51;8.05;;;2.30;;
29824;SDS011;16713;52.916;12.834;2023-12-20T06:06:18;6.53;;;1.70;;
29824;SDS011;16713;52.916;12.834;2023-12-20T06:08:44;18.23;;;3.20;;
29824;SDS011;16713;52.916;12.834;2023-12-20T06:11:11;6.57;;;1.63;;
29824;SDS011;16713;52.916;12.834;2023-12-20T06:13:37;15.48;;;3.85;;
29824;SDS011;16713;52.916;12.834;2023-12-20T06:16:05;9.57;;;2.60;;
29824;SDS011;16713;52.916;12.834;2023-12-20T06:18:32;10.90;;;2.92;;
29824;SDS011;16713;52.916;12.834;2023-12-20T06:20:59;12.48;;;3.53;;
29824;SDS011;16713;52.916;12.834;2023-12-20T06:23:25;11.43;;;2.63;;
29824;SDS011;16713;52.916;12.834;2023-12-20T06:25:53;10.85;;;2.35;;
29824;SDS011;16713;52.916;12.834;2023-12-20T06:28:19;17.08;;;3.08;;
29824;SDS011;16713;52.916;12.834;2023-12-20T06:30:46;13.15;;;2.30;;
29824;SDS011;16713;52.916;12.834;2023-12-20T06:33:15;7.90;;;2.35;;
29824;SDS011;16713;52.916;12.834;2023-12-20T06:35:42;11.90;;;2.95;;
29824;SDS011;16713;52.916;12.834;2023-12-20T06:38:09;12.55;;;2.45;;
29824;SDS011;16713;52.916;12.834;2023-12-20T06:40:35;5.82;;;1.67;;
29824;SDS011;16713;52.916;12.834;2023-12-20T06:43:02;10.10;;;3.15;;
29824;SDS011;16713;52.916;12.834;2023-12-20T06:45:41;11.00;;;3.10;;
29824;SDS011;16713;52.916;12.834;2023-12-20T06:48:08;6.72;;;2.05;;
29824;SDS011;16713;52.916;12.834;2023-12-20T06:50:37;11.50;;;2.65;;
29824;SDS011;16713;52.916;12.834;2023-12-20T06:53:06;11.77;;;2.03;;
29824;SDS011;16713;52.916;12.834;2023-12-20T06:55:35;14.18;;;2.70;;
29824;SDS011;16713;52.916;12.834;2023-12-20T06:58:04;4.85;;;2.05;;
29824;SDS011;16713;52.916;12.834;2023-12-20T07:00:31;9.73;;;2.17;;
29824;SDS011;16713;52.916;12.834;2023-12-20T07:02:58;8.95;;;2.30;;
29824;SDS011;16713;52.916;12.834;2023-12-20T07:05:25;11.57;;;2.17;;
29824;SDS011;16713;52.916;12.834;2023-12-20T07:07:51;10.50;;;2.13;;
29824;SDS011;16713;52.916;12.834;2023-12-20T07:10:18;12.25;;;3.05;;
29824;SDS011;16713;52.916;12.834;2023-12-20T07:12:45;9.35;;;2.88;;
29824;SDS011;16713;52.916;12.834;2023-12-20T07:15:11;8.60;;;2.03;;
29824;SDS011;16713;52.916;12.834;2023-12-20T07:17:38;14.00;;;2.10;;
29824;SDS011;16713;52.916;12.834;2023-12-20T07:20:05;17.92;;;2.35;;
29824;SDS011;16713;52.916;12.834;2023-12-20T07:22:33;10.50;;;2.78;;
29824;SDS011;16713;52.916;12.834;2023-12-20T07:25:00;9.02;;;1.80;;
29824;SDS011;16713;52.916;12.834;2023-12-20T07:27:27;12.57;;;2.22;;
29824;SDS011;16713;52.916;12.834;2023-12-20T07:29:53;7.68;;;2.17;;
29824;SDS011;16713;52.916;12.834;2023-12-20T07:32:20;6.40;;;2.00;;
29824;SDS011;16713;52.916;12.834;2023-12-20T07:34:46;10.88;;;2.83;;
29824;SDS011;16713;52.916;12.834;2023-12-20T07:37:13;10.05;;;2.45;;
29824;SDS011;16713;52.916;12.834;2023-12-20T07:39:40;10.75;;;2.90;;
29824;SDS011;16713;52.916;12.834;2023-12-20T07:42:08;5.55;;;2.17;;
29824;SDS011;16713;52.916;12.834;2023-12-20T07:44:35;8.38;;;2.88;;
29824;SDS011;16713;52.916;12.834;2023-12-20T07:47:05;10.98;;;2.55;;
29824;SDS011;16713;52.916;12.834;2023-12-20T07:49:31;13.60;;;2.63;;
29824;SDS011;16713;52.916;12.834;2023-12-20T07:51:58;20.50;;;5.38;;
29824;SDS011;16713;52.916;12.834;2023-12-20T07:54:25;12.05;;;2.63;;
29824;SDS011;16713;52.916;12.834;2023-12-20T07:56:51;12.77;;;3.08;;
29824;SDS011;16713;52.916;12.834;2023-12-20T07:59:18;10.00;;;2.72;;
29824;SDS011;16713;52.916;12.834;2023-12-20T08:01:57;13.80;;;3.50;;
29824;SDS011;16713;52.916;12.834;2023-12-20T08:04:24;14.13;;;4.95;;
29824;SDS011;16713;52.916;12.834;2023-12-20T08:06:51;12.98;;;2.65;;
29824;SDS011;16713;52.916;12.834;2023-12-20T08:09:17;10.02;;;2.97;;
29824;SDS011;16713;52.916;12.834;2023-12-20T08:11:44;12.68;;;2.85;;
29824;SDS011;16713;52.916;12.834;2023-12-20T08:14:14;16.70;;;3.10;;
29824;SDS011;16713;52.916;12.834;2023-12-20T08:16:44;8.82;;;2.63;;
29824;SDS011;16713;52.916;12.834;2023-12-20T08:19:11;11.18;;;2.72;;
29824;SDS011;16713;52.916;12.834;2023-12-20T08:21:37;11.77;;;2.80;;
29824;SDS011;16713;52.916;12.834;2023-12-20T08:24:04;10.38;;;2.50;;
29824;SDS011;16713;52.916;12.834;2023-12-20T08:26:32;12.25;;;2.97;;
29824;SDS011;16713;52.916;12.834;2023-12-20T08:28:59;11.63;;;3.53;;
29824;SDS011;16713;52.916;12.834;2023-12-20T08:31:28;17.35;;;3.38;;
29824;SDS011;16713;52.916;12.834;2023-12-20T08:33:55;8.98;;;2.65;;
29824;SDS011;16713;52.916;12.834;2023-12-20T08:36:22;6.43;;;1.85;;
29824;SDS011;16713;52.916;12.834;2023-12-20T08:38:49;7.85;;;3.55;;
29824;SDS011;16713;52.916;12.834;2023-12-20T08:41:16;12.63;;;2.70;;
29824;SDS011;16713;52.916;12.834;2023-12-20T08:43:43;13.82;;;2.30;;
29824;SDS011;16713;52.916;12.834;2023-12-20T08:46:10;10.25;;;2.72;;
29824;SDS011;16713;52.916;12.834;2023-12-20T08:48:36;14.60;;;3.03;;
29824;SDS011;16713;52.916;12.834;2023-12-20T08:51:04;15.00;;;3.17;;
29824;SDS011;16713;52.916;12.834;2023-12-20T08:53:33;15.65;;;3.00;;
29824;SDS011;16713;52.916;12.834;2023-12-20T08:55:59;7.80;;;2.55;;
29824;SDS011;16713;52.916;12.834;2023-12-20T08:58:28;10.77;;;2.78;;
29824;SDS011;16713;52.916;12.834;2023-12-20T09:00:55;15.25;;;3.15;;
29824;SDS011;16713;52.916;12.834;2023-12-20T09:03:21;14.02;;;2.45;;
29824;SDS011;16713;52.916;12.834;2023-12-20T09:05:48;7.65;;;2.08;;
29824;SDS011;16713;52.916;12.834;2023-12-20T09:08:14;9.90;;;2.15;;
29824;SDS011;16713;52.916;12.834;2023-12-20T09:10:41;12.93;;;2.45;;
29824;SDS011;16713;52.916;12.834;2023-12-20T09:13:07;14.70;;;3.00;;
29824;SDS011;16713;52.916;12.834;2023-12-20T09:15:34;15.77;;;2.75;;
29824;SDS011;16713;52.916;12.834;2023-12-20T09:18:02;10.85;;;2.85;;
29824;SDS011;16713;52.916;12.834;2023-12-20T09:20:30;6.00;;;2.22;;
29824;SDS011;16713;52.916;12.834;2023-12-20T09:22:56;14.27;;;3.13;;
29824;SDS011;16713;52.916;12.834;2023-12-20T09:25:23;19.33;;;3.05;;
29824;SDS011;16713;52.916;12.834;2023-12-20T09:27:50;7.95;;;2.75;;
29824;SDS011;16713;52.916;12.834;2023-12-20T09:30:17;28.02;;;4.47;;
29824;SDS011;16713;52.916;12.834;2023-12-20T09:32:53;12.98;;;2.75;;
29824;SDS011;16713;52.916;12.834;2023-12-20T09:35:20;14.05;;;3.13;;
29824;SDS011;16713;52.916;12.834;2023-12-20T09:37:47;18.42;;;2.90;;
29824;SDS011;16713;52.916;12.834;2023-12-20T09:40:13;13.98;;;2.60;;
29824;SDS011;16713;52.916;12.834;2023-12-20T09:42:47;20.02;;;3.25;;
29824;SDS011;16713;52.916;12.834;2023-12-20T09:45:23;13.15;;;2.63;;
29824;SDS011;16713;52.916;12.834;2023-12-20T09:47:54;14.32;;;3.67;;
29824;SDS011;16713;52.916;12.834;2023-12-20T09:50:21;13.30;;;2.65;;
29824;SDS011;16713;52.916;12.834;2023-12-20T09:52:49;10.48;;;2.45;;
29824;SDS011;16713;52.916;12.834;2023-12-20T09:55:18;14.27;;;2.65;;
29824;SDS011;16713;52.916;12.834;2023-12-20T09:57:46;17.27;;;3.45;;
29824;SDS011;16713;52.916;12.834;2023-12-20T10:00:13;10.65;;;2.70;;
29824;SDS011;16713;52.916;12.834;2023-12-20T10:02:45;9.13;;;3.03;;
29824;SDS011;16713;52.916;12.834;2023-12-20T10:05:23;18.90;;;4.63;;
29824;SDS011;16713;52.916;12.834;2023-12-20T10:07:53;24.15;;;2.88;;
29824;SDS011;16713;52.916;12.834;2023-12-20T10:10:20;20.33;;;3.22;;
29824;SDS011;16713;52.916;12.834;2023-12-20T10:15:35;16.85;;;2.55;;
29824;SDS011;16713;52.916;12.834;2023-12-20T10:18:02;15.65;;;3.67;;
29824;SDS011;16713;52.916;12.834;2023-12-20T10:20:30;14.02;;;3.03;;
29824;SDS011;16713;52.916;12.834;2023-12-20T10:22:57;15.18;;;3.17;;
29824;SDS011;16713;52.916;12.834;2023-12-20T10:25:24;13.10;;;2.95;;
29824;SDS011;16713;52.916;12.834;2023-12-20T10:30:37;13.98;;;3.35;;
29824;SDS011;16713;52.916;12.834;2023-12-20T10:33:07;16.13;;;3.72;;
29824;SDS011;16713;52.916;12.834;2023-12-20T10:35:35;12.18;;;2.35;;
29824;SDS011;16713;52.916;12.834;2023-12-20T10:38:04;11.98;;;2.63;;
29824;SDS011;16713;52.916;12.834;2023-12-20T10:40:35;13.43;;;4.05;;
29824;SDS011;16713;52.916;12.834;2023-12-20T10:43:03;12.65;;;2.83;;
29824;SDS011;16713;52.916;12.834;2023-12-20T10:45:30;16.38;;;2.67;;
29824;SDS011;16713;52.916;12.834;2023-12-20T10:47:57;9.50;;;2.60;;
29824;SDS011;16713;52.916;12.834;2023-12-20T10:50:27;15.65;;;2.53;;
29824;SDS011;16713;52.916;12.834;2023-12-20T10:52:57;17.20;;;3.20;;
29824;SDS011;16713;52.916;12.834;2023-12-20T10:55:25;13.07;;;2.92;;
29824;SDS011;16713;52.916;12.834;2023-12-20T10:57:52;12.48;;;2.83;;
29824;SDS011;16713;52.916;12.834;2023-12-20T11:00:26;13.82;;;3.22;;
29824;SDS011;16713;52.916;12.834;2023-12-20T11:02:54;16.15;;;3.78;;
29824;SDS011;16713;52.916;12.834;2023-12-20T11:05:36;16.00;;;3.00;;
29824;SDS011;16713;52.916;12.834;2023-12-20T11:08:16;13.88;;;2.83;;
29824;SDS011;16713;52.916;12.834;2023-12-20T11:10:55;14.80;;;2.95;;
29824;SDS011;16713;52.916;12.834;2023-12-20T11:15:52;17.40;;;3.53;;
29824;SDS011;16713;52.916;12.834;2023-12-20T11:18:20;15.80;;;3.30;;
29824;SDS011;16713;52.916;12.834;2023-12-20T11:20:55;13.77;;;2.70;;
29824;SDS011;16713;52.916;12.834;2023-12-20T11:23:27;8.80;;;2.55;;
29824;SDS011;16713;52.916;12.834;2023-12-20T11:25:54;10.20;;;2.45;;
29824;SDS011;16713;52.916;12.834;2023-12-20T11:28:23;10.85;;;2.92;;
29824;SDS011;16713;52.916;12.834;2023-12-20T11:30:51;11.50;;;2.92;;
29824;SDS011;16713;52.916;12.834;2023-12-20T11:33:25;16.23;;;2.88;;
29824;SDS011;16713;52.916;12.834;2023-12-20T11:35:56;13.02;;;3.03;;
29824;SDS011;16713;52.916;12.834;2023-12-20T11:38:23;13.13;;;3.15;;
29824;SDS011;16713;52.916;12.834;2023-12-20T11:40:51;13.48;;;3.10;;
29824;SDS011;16713;52.916;12.834;2023-12-20T11:43:29;17.20;;;2.55;;
29824;SDS011;16713;52.916;12.834;2023-12-20T11:46:06;6.82;;;2.22;;
29824;SDS011;16713;52.916;12.834;2023-12-20T11:48:35;8.82;;;2.35;;
29824;SDS011;16713;52.916;12.834;2023-12-20T11:51:08;9.48;;;2.47;;
29824;SDS011;16713;52.916;12.834;2023-12-20T11:53:35;9.30;;;2.10;;
29824;SDS011;16713;52.916;12.834;2023-12-20T11:56:03;11.18;;;2.20;;
29824;SDS011;16713;52.916;12.834;2023-12-20T11:58:32;9.32;;;2.50;;
29824;SDS011;16713;52.916;12.834;2023-12-20T12:01:00;12.30;;;2.70;;
29824;SDS011;16713;52.916;12.834;2023-12-20T12:03:28;11.07;;;2.28;;
29824;SDS011;16713;52.916;12.834;2023-12-20T12:05:55;13.43;;;2.95;;
29824;SDS011;16713;52.916;12.834;2023-12-20T12:08:21;6.88;;;2.38;;
29824;SDS011;16713;52.916;12.834;2023-12-20T12:10:48;12.07;;;2.55;;
29824;SDS011;16713;52.916;12.834;2023-12-20T12:13:15;8.45;;;2.20;;
29824;SDS011;16713;52.916;12.834;2023-12-20T12:15:42;10.02;;;2.10;;
29824;SDS011;16713;52.916;12.834;2023-12-20T12:18:08;6.75;;;2.22;;
29824;SDS011;16713;52.916;12.834;2023-12-20T12:20:36;4.40;;;1.52;;
29824;SDS011;16713;52.916;12.834;2023-12-20T12:23:04;9.60;;;1.73;;
29824;SDS011;16713;52.916;12.834;2023-12-20T12:25:34;3.88;;;1.40;;
29824;SDS011;16713;52.916;12.834;2023-12-20T12:28:07;7.70;;;2.13;;
29824;SDS011;16713;52.916;12.834;2023-12-20T12:30:33;2.33;;;0.90;;
29824;SDS011;16713;52.916;12.834;2023-12-20T12:33:08;2.38;;;1.10;;
29824;SDS011;16713;52.916;12.834;2023-12-20T12:35:34;2.28;;;0.50;;
29824;SDS011;16713;52.916;12.834;2023-12-20T12:38:01;0.80;;;0.43;;
29824;SDS011;16713;52.916;12.834;2023-12-20T12:40:29;3.38;;;1.00;;
29824;SDS011;16713;52.916;12.834;2023-12-20T12:42:56;0.98;;;0.50;;
29824;SDS011;16713;52.916;12.834;2023-12-20T12:45:22;3.33;;;0.82;;
29824;SDS011;16713;52.916;12.834;2023-12-20T12:47:48;1.00;;;0.50;;
29824;SDS011;16713;52.916;12.834;2023-12-20T12:50:15;0.52;;;0.40;;
29824;SDS011;16713;52.916;12.834;2023-12-20T12:52:42;0.63;;;0.38;;
29824;SDS011;16713;52.916;12.834;2023-12-20T12:55:08;1.55;;;0.68;;
29824;SDS011;16713;52.916;12.834;2023-12-20T12:57:35;1.08;;;0.38;;
29824;SDS011;16713;52.916;12.834;2023-12-20T13:00:02;2.80;;;0.60;;
29824;SDS011;16713;52.916;12.834;2023-12-20T13:02:29;2.70;;;0.63;;
29824;SDS011;16713;52.916;12.834;2023-12-20T13:04:56;4.75;;;0.73;;
29824;SDS011;16713;52.916;12.834;2023-12-20T13:07:23;0.93;;;0.50;;
29824;SDS011;16713;52.916;12.834;2023-12-20T13:09:49;4.97;;;0.90;;
29824;SDS011;16713;52.916;12.834;2023-12-20T13:12:16;4.15;;;2.25;;
29824;SDS011;16713;52.916;12.834;2023-12-20T13:14:43;4.00;;;1.50;;
29824;SDS011;16713;52.916;12.834;2023-12-20T13:17:09;4.65;;;0.90;;
29824;SDS011;16713;52.916;12.834;2023-12-20T13:19:36;3.22;;;0.90;;
29824;SDS011;16713;52.916;12.834;2023-12-20T13:22:03;4.85;;;1.13;;
29824;SDS011;16713;52.916;12.834;2023-12-20T13:24:30;2.95;;;1.10;;
29824;SDS011;16713;52.916;12.834;2023-12-20T13:26:56;4.57;;;1.00;;
29824;SDS011;16713;52.916;12.834;2023-12-20T13:29:24;3.85;;;0.88;;
29824;SDS011;16713;52.916;12.834;2023-12-20T13:31:53;2.72;;;1.08;;
29824;SDS011;16713;52.916;12.834;2023-12-20T13:34:20;3.60;;;1.02;;
29824;SDS011;16713;52.916;12.834;2023-12-20T13:36:47;5.00;;;1.27;;
29824;SDS011;16713;52.916;12.834;2023-12-20T13:39:16;2.55;;;1.15;;
29824;SDS011;16713;52.916;12.834;2023-12-20T13:41:42;6.05;;;0.93;;
29824;SDS011;16713;52.916;12.834;2023-12-20T13:44:09;4.90;;;1.00;;
29824;SDS011;16713;52.916;12.834;2023-12-20T13:46:35;3.75;;;1.00;;
29824;SDS011;16713;52.916;12.834;2023-12-20T13:49:02;5.15;;;1.08;;
29824;SDS011;16713;52.916;12.834;2023-12-20T13:51:28;3.15;;;1.30;;
29824;SDS011;16713;52.916;12.834;2023-12-20T13:53:55;6.03;;;1.63;;
29824;SDS011;16713;52.916;12.834;2023-12-20T13:56:21;5.43;;;1.52;;
29824;SDS011;16713;52.916;12.834;2023-12-20T13:58:49;5.60;;;1.35;;
29824;SDS011;16713;52.916;12.834;2023-12-20T14:01:17;4.82;;;1.25;;
29824;SDS011;16713;52.916;12.834;2023-12-20T14:03:43;4.60;;;1.15;;
29824;SDS011;16713;52.916;12.834;2023-12-20T14:06:10;3.83;;;0.77;;
29824;SDS011;16713;52.916;12.834;2023-12-20T14:08:36;1.67;;;0.70;;
29824;SDS011;16713;52.916;12.834;2023-12-20T14:11:03;4.78;;;1.10;;
29824;SDS011;16713;52.916;12.834;2023-12-20T14:13:30;2.67;;;1.17;;
29824;SDS011;16713;52.916;12.834;2023-12-20T14:15:57;3.50;;;0.90;;
29824;SDS011;16713;52.916;12.834;2023-12-20T14:18:26;1.25;;;0.82;;
29824;SDS011;16713;52.916;12.834;2023-12-20T14:20:53;1.80;;;0.90;;
29824;SDS011;16713;52.916;12.834;2023-12-20T14:23:20;2.15;;;0.80;;
29824;SDS011;16713;52.916;12.834;2023-12-20T14:25:46;1.48;;;0.75;;
29824;SDS011;16713;52.916;12.834;2023-12-20T14:28:18;1.25;;;0.60;;
29824;SDS011;16713;52.916;12.834;2023-12-20T14:30:45;3.05;;;0.75;;
29824;SDS011;16713;52.916;12.834;2023-12-20T14:33:12;4.30;;;0.82;;
29824;SDS011;16713;52.916;12.834;2023-12-20T14:35:40;3.60;;;0.77;;
29824;SDS011;16713;52.916;12.834;2023-12-20T14:38:11;6.03;;;1.33;;